Etusivu
METAR-TAF:

METAR-TAF

Lentoasemat :

Glenwood Municipal Airport

Glenwood, Minnesota, Yhdysvallat

Leveyspiiri: 45-39N, Pituuspiiri: 095-19W, korkeus merenpinnasta: 425 m

Tämänhetkinen sää

Tämä raportti tehtiin 12 minuuttia sitten, kello 02.16 UTC
Tuuli 4 kn lännestä
Lämpötila -5°C
Kosteus 93%
Ilmanpaine 1015 hPa
Näkyvyys: 16.1 km
selkeää

METAR: KGHW 110216Z AUTO 28004KT 10SM CLR M05/M06 A2998 RMK AO2

Aika: 20:28 (02:28 UTC)


TAF: puuttuu

Säähavainnot ja -ennusteet yli 4000 lentoasemalta (METAR- ja TAF-raportit).

Käytössä olevat sääasemat on merkitty karttaan keltaisilla ja punaisilla pisteillä.

Aseta hiiri pisteen päälle nähdäksesi sääaseman nimen.

Klikkaa sitten nähdäksesi säähavainnot ja -ennusteet.

Kartan vaihtaminen: klikkaa mustalla rastilla varustettuja vihreitä pisteitä, niin voit zoomata sisään; viivalla varustettua vihreää pistettä, niin voit zoomata ulos tai vihreitä nuolia, niin pääset viereisille kartoille.


METAR-TAF: